sensor_id;sensor_type;location;lat;lon;timestamp;pressure;altitude;pressure_sealevel;temperature;humidity
61359;BME280;47228;46.762;23.598;2023-07-31T00:01:32;96814.26;;;17.43;95.22
61359;BME280;47228;46.762;23.598;2023-07-31T00:17:30;96811.13;;;17.38;95.25
61359;BME280;47228;46.762;23.598;2023-07-31T00:39:59;96812.34;;;17.25;94.72
61359;BME280;47228;46.762;23.598;2023-07-31T00:47:31;96807.39;;;17.22;94.37
61359;BME280;47228;46.762;23.598;2023-07-31T00:55:32;96816.80;;;17.17;94.70
61359;BME280;47228;46.762;23.598;2023-07-31T00:59:32;96812.41;;;17.17;94.67
61359;BME280;47228;46.762;23.598;2023-07-31T01:03:28;96812.03;;;17.17;94.55
61359;BME280;47228;46.762;23.598;2023-07-31T01:07:17;96811.13;;;17.17;94.44
61359;BME280;47228;46.762;23.598;2023-07-31T01:15:34;96810.96;;;17.26;94.24
61359;BME280;47228;46.762;23.598;2023-07-31T01:37:08;96816.75;;;17.25;93.36
61359;BME280;47228;46.762;23.598;2023-07-31T01:41:16;96817.15;;;17.21;93.17
61359;BME280;47228;46.762;23.598;2023-07-31T02:03:16;96832.15;;;17.16;92.93
61359;BME280;47228;46.762;23.598;2023-07-31T02:21:04;96863.25;;;17.30;93.09
61359;BME280;47228;46.762;23.598;2023-07-31T02:24:31;96864.63;;;17.37;93.08
61359;BME280;47228;46.762;23.598;2023-07-31T02:28:51;96866.77;;;17.36;91.90
61359;BME280;47228;46.762;23.598;2023-07-31T02:40:35;96855.48;;;17.39;91.60
61359;BME280;47228;46.762;23.598;2023-07-31T02:57:29;96853.20;;;17.37;90.23
61359;BME280;47228;46.762;23.598;2023-07-31T03:05:17;96848.48;;;17.36;90.21
61359;BME280;47228;46.762;23.598;2023-07-31T03:09:14;96850.23;;;17.34;89.80
61359;BME280;47228;46.762;23.598;2023-07-31T03:13:21;96850.21;;;17.31;89.85
61359;BME280;47228;46.762;23.598;2023-07-31T03:17:09;96851.20;;;17.27;89.76
61359;BME280;47228;46.762;23.598;2023-07-31T03:30:33;96860.29;;;17.18;89.30
61359;BME280;47228;46.762;23.598;2023-07-31T03:34:19;96865.48;;;17.16;89.21
61359;BME280;47228;46.762;23.598;2023-07-31T03:46:22;96867.59;;;17.21;89.20
61359;BME280;47228;46.762;23.598;2023-07-31T03:54:05;96877.48;;;17.23;88.64
61359;BME280;47228;46.762;23.598;2023-07-31T03:57:59;96879.66;;;17.19;88.43
61359;BME280;47228;46.762;23.598;2023-07-31T04:06:06;96879.84;;;17.14;88.44
61359;BME280;47228;46.762;23.598;2023-07-31T04:14:07;96874.79;;;17.12;88.13
61359;BME280;47228;46.762;23.598;2023-07-31T04:18:10;96870.65;;;17.13;88.05
61359;BME280;47228;46.762;23.598;2023-07-31T04:22:08;96872.52;;;17.12;88.23
61359;BME280;47228;46.762;23.598;2023-07-31T04:30:19;96878.35;;;17.16;88.14
61359;BME280;47228;46.762;23.598;2023-07-31T04:51:11;96884.64;;;17.33;87.47
61359;BME280;47228;46.762;23.598;2023-07-31T04:54:54;96883.32;;;17.35;87.25
61359;BME280;47228;46.762;23.598;2023-07-31T05:03:08;96884.05;;;17.44;87.36
61359;BME280;47228;46.762;23.598;2023-07-31T05:10:49;96883.88;;;17.59;87.15
61359;BME280;47228;46.762;23.598;2023-07-31T05:18:58;96894.16;;;17.76;86.17
61359;BME280;47228;46.762;23.598;2023-07-31T05:23:02;96889.89;;;17.83;86.31
61359;BME280;47228;46.762;23.598;2023-07-31T05:26:16;96889.18;;;17.93;86.11
61359;BME280;47228;46.762;23.598;2023-07-31T05:29:38;96885.42;;;18.04;85.81
61359;BME280;47228;46.762;23.598;2023-07-31T05:41:01;96893.80;;;18.33;83.81
61359;BME280;47228;46.762;23.598;2023-07-31T05:44:54;96899.83;;;18.36;83.93
61359;BME280;47228;46.762;23.598;2023-07-31T05:48:47;96903.83;;;18.41;84.16
61359;BME280;47228;46.762;23.598;2023-07-31T05:52:33;96908.61;;;18.49;83.88
61359;BME280;47228;46.762;23.598;2023-07-31T06:00:27;96915.10;;;18.54;83.26
61359;BME280;47228;46.762;23.598;2023-07-31T06:04:25;96913.11;;;18.56;82.91
61359;BME280;47228;46.762;23.598;2023-07-31T06:07:45;96911.98;;;18.57;82.46
61359;BME280;47228;46.762;23.598;2023-07-31T06:20:10;96919.50;;;18.56;82.33
61359;BME280;47228;46.762;23.598;2023-07-31T06:27:38;96925.75;;;18.55;81.99
61359;BME280;47228;46.762;23.598;2023-07-31T06:31:34;96922.41;;;18.60;82.70
61359;BME280;47228;46.762;23.598;2023-07-31T07:01:08;96919.58;;;19.09;81.97
61359;BME280;47228;46.762;23.598;2023-07-31T07:05:28;96923.73;;;19.19;81.34
61359;BME280;47228;46.762;23.598;2023-07-31T07:13:34;96926.84;;;19.35;80.64
61359;BME280;47228;46.762;23.598;2023-07-31T07:27:08;96937.90;;;19.52;79.65
61359;BME280;47228;46.762;23.598;2023-07-31T07:30:53;96935.86;;;19.57;79.00
61359;BME280;47228;46.762;23.598;2023-07-31T07:35:13;96938.10;;;19.60;78.77
61359;BME280;47228;46.762;23.598;2023-07-31T07:41:39;96936.15;;;19.69;78.77
61359;BME280;47228;46.762;23.598;2023-07-31T07:44:54;96934.03;;;19.75;78.26
61359;BME280;47228;46.762;23.598;2023-07-31T07:52:00;96937.20;;;19.91;78.55
61359;BME280;47228;46.762;23.598;2023-07-31T07:55:49;96938.32;;;20.07;78.82
61359;BME280;47228;46.762;23.598;2023-07-31T07:59:13;96939.59;;;20.27;79.03
61359;BME280;47228;46.762;23.598;2023-07-31T08:03:12;96943.75;;;20.47;77.23
61359;BME280;47228;46.762;23.598;2023-07-31T08:11:38;96944.52;;;20.73;75.68
61359;BME280;47228;46.762;23.598;2023-07-31T08:22:48;96938.48;;;21.07;74.81
61359;BME280;47228;46.762;23.598;2023-07-31T08:26:46;96939.35;;;21.08;74.19
61359;BME280;47228;46.762;23.598;2023-07-31T08:38:26;96940.19;;;21.17;74.75
61359;BME280;47228;46.762;23.598;2023-07-31T08:50:27;96943.89;;;21.18;72.21
61359;BME280;47228;46.762;23.598;2023-07-31T08:53:36;96939.04;;;21.20;71.96
61359;BME280;47228;46.762;23.598;2023-07-31T09:00:52;96933.99;;;21.28;72.89
61359;BME280;47228;46.762;23.598;2023-07-31T09:11:55;96929.40;;;22.17;72.87
61359;BME280;47228;46.762;23.598;2023-07-31T09:27:19;96924.30;;;22.85;65.01
61359;BME280;47228;46.762;23.598;2023-07-31T09:31:49;96917.70;;;22.84;65.15
61359;BME280;47228;46.762;23.598;2023-07-31T09:44:48;96907.19;;;23.69;63.37
61359;BME280;47228;46.762;23.598;2023-07-31T09:48:22;96900.98;;;23.93;61.01
61359;BME280;47228;46.762;23.598;2023-07-31T09:55:48;96898.63;;;24.43;61.06
61359;BME280;47228;46.762;23.598;2023-07-31T10:03:21;96891.14;;;24.45;56.71
61359;BME280;47228;46.762;23.598;2023-07-31T10:15:29;96884.27;;;23.82;59.87
61359;BME280;47228;46.762;23.598;2023-07-31T10:24:09;96877.17;;;23.77;57.73
61359;BME280;47228;46.762;23.598;2023-07-31T10:28:15;96878.09;;;23.77;58.73
61359;BME280;47228;46.762;23.598;2023-07-31T10:36:37;96870.25;;;23.67;56.57
61359;BME280;47228;46.762;23.598;2023-07-31T10:40:33;96869.28;;;23.76;56.75
61359;BME280;47228;46.762;23.598;2023-07-31T10:48:25;96869.86;;;24.71;55.62
61359;BME280;47228;46.762;23.598;2023-07-31T10:56:00;96865.17;;;25.94;55.65
61359;BME280;47228;46.762;23.598;2023-07-31T11:04:13;96861.36;;;26.02;53.13
61359;BME280;47228;46.762;23.598;2023-07-31T11:11:59;96849.52;;;25.86;55.94
61359;BME280;47228;46.762;23.598;2023-07-31T11:15:43;96848.45;;;25.93;55.29
61359;BME280;47228;46.762;23.598;2023-07-31T11:28:21;96848.59;;;25.43;55.23
61359;BME280;47228;46.762;23.598;2023-07-31T11:35:06;96841.85;;;25.14;55.54
61359;BME280;47228;46.762;23.598;2023-07-31T11:47:18;96850.95;;;25.11;56.87
61359;BME280;47228;46.762;23.598;2023-07-31T11:52:02;96845.70;;;25.08;57.19
61359;BME280;47228;46.762;23.598;2023-07-31T11:59:19;96838.64;;;25.04;56.68
61359;BME280;47228;46.762;23.598;2023-07-31T12:06:46;96830.92;;;24.86;55.71
61359;BME280;47228;46.762;23.598;2023-07-31T12:10:29;96828.67;;;24.89;55.53
61359;BME280;47228;46.762;23.598;2023-07-31T12:18:10;96816.92;;;25.01;55.66
61359;BME280;47228;46.762;23.598;2023-07-31T14:31:51;96782.52;;;22.39;71.98
61359;BME280;47228;46.762;23.598;2023-07-31T14:34:19;96782.66;;;22.48;72.12
61359;BME280;47228;46.762;23.598;2023-07-31T14:36:46;96785.30;;;22.63;72.13
61359;BME280;47228;46.762;23.598;2023-07-31T14:39:14;96790.91;;;22.81;72.31
61359;BME280;47228;46.762;23.598;2023-07-31T14:41:42;96787.84;;;22.96;71.19
61359;BME280;47228;46.762;23.598;2023-07-31T14:44:11;96790.34;;;23.04;70.76
61359;BME280;47228;46.762;23.598;2023-07-31T14:46:38;96796.77;;;23.11;71.03
61359;BME280;47228;46.762;23.598;2023-07-31T14:49:07;96798.70;;;23.13;70.27
61359;BME280;47228;46.762;23.598;2023-07-31T14:51:35;96796.48;;;23.12;70.05
61359;BME280;47228;46.762;23.598;2023-07-31T14:54:03;96801.11;;;23.10;69.93
61359;BME280;47228;46.762;23.598;2023-07-31T14:56:31;96801.55;;;23.07;70.21
61359;BME280;47228;46.762;23.598;2023-07-31T14:58:59;96798.66;;;23.05;70.88
61359;BME280;47228;46.762;23.598;2023-07-31T15:01:27;96802.07;;;23.03;70.86
61359;BME280;47228;46.762;23.598;2023-07-31T15:03:55;96805.72;;;22.95;70.12
61359;BME280;47228;46.762;23.598;2023-07-31T15:06:23;96802.54;;;22.89;70.55
61359;BME280;47228;46.762;23.598;2023-07-31T15:08:51;96805.91;;;22.87;70.99
61359;BME280;47228;46.762;23.598;2023-07-31T15:11:19;96806.83;;;22.88;71.26
61359;BME280;47228;46.762;23.598;2023-07-31T15:13:47;96800.91;;;22.92;71.37
61359;BME280;47228;46.762;23.598;2023-07-31T15:16:15;96797.64;;;22.98;71.49
61359;BME280;47228;46.762;23.598;2023-07-31T15:18:43;96793.06;;;23.06;70.56
61359;BME280;47228;46.762;23.598;2023-07-31T15:21:11;96789.95;;;23.08;69.73
61359;BME280;47228;46.762;23.598;2023-07-31T15:23:39;96791.94;;;23.06;68.62
61359;BME280;47228;46.762;23.598;2023-07-31T15:26:07;96791.77;;;23.03;68.49
61359;BME280;47228;46.762;23.598;2023-07-31T15:28:35;96793.34;;;23.06;68.70
61359;BME280;47228;46.762;23.598;2023-07-31T15:31:05;96792.48;;;23.08;68.44
61359;BME280;47228;46.762;23.598;2023-07-31T15:33:33;96793.73;;;23.08;67.77
61359;BME280;47228;46.762;23.598;2023-07-31T15:36:03;96794.08;;;23.10;67.85
61359;BME280;47228;46.762;23.598;2023-07-31T15:38:31;96790.80;;;23.20;67.93
61359;BME280;47228;46.762;23.598;2023-07-31T15:40:59;96786.71;;;23.35;67.82
61359;BME280;47228;46.762;23.598;2023-07-31T15:43:27;96787.43;;;23.56;68.02
61359;BME280;47228;46.762;23.598;2023-07-31T15:45:57;96789.39;;;23.74;67.13
61359;BME280;47228;46.762;23.598;2023-07-31T15:48:25;96793.81;;;23.81;65.95
61359;BME280;47228;46.762;23.598;2023-07-31T15:50:53;96793.52;;;23.79;65.12
61359;BME280;47228;46.762;23.598;2023-07-31T15:53:21;96790.67;;;23.76;65.10
61359;BME280;47228;46.762;23.598;2023-07-31T15:55:49;96792.29;;;23.76;65.52
61359;BME280;47228;46.762;23.598;2023-07-31T15:58:17;96789.96;;;23.73;65.18
61359;BME280;47228;46.762;23.598;2023-07-31T16:00:46;96787.69;;;23.65;64.59
61359;BME280;47228;46.762;23.598;2023-07-31T16:03:14;96781.48;;;23.55;64.05
61359;BME280;47228;46.762;23.598;2023-07-31T16:05:42;96778.99;;;23.45;64.01
61359;BME280;47228;46.762;23.598;2023-07-31T16:08:10;96779.42;;;23.36;64.33
61359;BME280;47228;46.762;23.598;2023-07-31T16:10:38;96782.73;;;23.29;64.41
61359;BME280;47228;46.762;23.598;2023-07-31T16:13:06;96778.14;;;23.26;65.15
61359;BME280;47228;46.762;23.598;2023-07-31T16:15:35;96781.09;;;23.27;65.51
61359;BME280;47228;46.762;23.598;2023-07-31T16:18:02;96778.98;;;23.32;65.23
61359;BME280;47228;46.762;23.598;2023-07-31T16:20:31;96783.67;;;23.38;65.32
61359;BME280;47228;46.762;23.598;2023-07-31T16:22:59;96782.89;;;23.47;65.59
61359;BME280;47228;46.762;23.598;2023-07-31T16:25:27;96785.47;;;23.57;64.72
61359;BME280;47228;46.762;23.598;2023-07-31T16:27:55;96789.13;;;23.61;64.23
61359;BME280;47228;46.762;23.598;2023-07-31T16:30:23;96793.29;;;23.65;63.91
61359;BME280;47228;46.762;23.598;2023-07-31T16:32:51;96798.11;;;23.62;63.21
61359;BME280;47228;46.762;23.598;2023-07-31T16:35:20;96795.98;;;23.57;63.15
61359;BME280;47228;46.762;23.598;2023-07-31T16:37:48;96797.61;;;23.51;63.14
61359;BME280;47228;46.762;23.598;2023-07-31T16:40:16;96801.24;;;23.48;63.07
61359;BME280;47228;46.762;23.598;2023-07-31T16:42:44;96800.63;;;23.47;63.15
61359;BME280;47228;46.762;23.598;2023-07-31T16:45:11;96801.19;;;23.43;63.16
61359;BME280;47228;46.762;23.598;2023-07-31T16:47:39;96802.23;;;23.40;63.19
61359;BME280;47228;46.762;23.598;2023-07-31T16:50:08;96802.69;;;23.41;63.40
61359;BME280;47228;46.762;23.598;2023-07-31T16:52:36;96802.35;;;23.44;63.47
61359;BME280;47228;46.762;23.598;2023-07-31T16:55:04;96802.20;;;23.49;63.93
61359;BME280;47228;46.762;23.598;2023-07-31T16:57:32;96803.69;;;23.53;63.93
61359;BME280;47228;46.762;23.598;2023-07-31T17:00:00;96805.73;;;23.57;63.81
61359;BME280;47228;46.762;23.598;2023-07-31T17:02:28;96807.97;;;23.59;63.97
61359;BME280;47228;46.762;23.598;2023-07-31T17:04:56;96807.54;;;23.61;64.26
61359;BME280;47228;46.762;23.598;2023-07-31T17:07:24;96809.75;;;23.62;64.33
61359;BME280;47228;46.762;23.598;2023-07-31T17:09:52;96811.92;;;23.59;63.69
61359;BME280;47228;46.762;23.598;2023-07-31T17:12:23;96813.11;;;23.54;62.82
61359;BME280;47228;46.762;23.598;2023-07-31T17:14:51;96813.15;;;23.47;62.53
61359;BME280;47228;46.762;23.598;2023-07-31T17:17:19;96813.86;;;23.38;62.33
61359;BME280;47228;46.762;23.598;2023-07-31T17:19:51;96820.52;;;23.31;62.82
61359;BME280;47228;46.762;23.598;2023-07-31T17:22:19;96825.55;;;23.22;62.58
61359;BME280;47228;46.762;23.598;2023-07-31T17:24:52;96826.14;;;23.14;62.75
61359;BME280;47228;46.762;23.598;2023-07-31T17:27:21;96826.40;;;23.05;62.81
61359;BME280;47228;46.762;23.598;2023-07-31T17:29:51;96820.48;;;22.96;63.14
61359;BME280;47228;46.762;23.598;2023-07-31T17:32:19;96821.04;;;22.90;63.13
61359;BME280;47228;46.762;23.598;2023-07-31T17:34:51;96816.75;;;22.83;63.27
61359;BME280;47228;46.762;23.598;2023-07-31T17:37:19;96818.77;;;22.78;63.68
61359;BME280;47228;46.762;23.598;2023-07-31T17:39:46;96824.25;;;22.74;64.08
61359;BME280;47228;46.762;23.598;2023-07-31T17:42:14;96825.46;;;22.70;64.04
61359;BME280;47228;46.762;23.598;2023-07-31T17:44:42;96827.84;;;22.64;63.87
61359;BME280;47228;46.762;23.598;2023-07-31T17:47:11;96829.27;;;22.57;64.07
61359;BME280;47228;46.762;23.598;2023-07-31T17:49:39;96828.10;;;22.52;64.26
61359;BME280;47228;46.762;23.598;2023-07-31T17:52:07;96827.25;;;22.48;64.31
61359;BME280;47228;46.762;23.598;2023-07-31T17:54:35;96831.05;;;22.43;64.53
61359;BME280;47228;46.762;23.598;2023-07-31T17:57:03;96835.70;;;22.38;64.60
61359;BME280;47228;46.762;23.598;2023-07-31T17:59:31;96837.08;;;22.34;65.00
61359;BME280;47228;46.762;23.598;2023-07-31T18:01:59;96838.53;;;22.31;65.17
61359;BME280;47228;46.762;23.598;2023-07-31T18:04:27;96838.55;;;22.29;65.74
61359;BME280;47228;46.762;23.598;2023-07-31T18:06:55;96845.36;;;22.26;65.30
61359;BME280;47228;46.762;23.598;2023-07-31T18:09:23;96850.59;;;22.23;65.74
61359;BME280;47228;46.762;23.598;2023-07-31T18:11:51;96852.84;;;22.21;66.33
61359;BME280;47228;46.762;23.598;2023-07-31T18:14:19;96854.58;;;22.16;66.52
61359;BME280;47228;46.762;23.598;2023-07-31T18:16:52;96858.09;;;22.08;66.40
61359;BME280;47228;46.762;23.598;2023-07-31T18:19:20;96862.98;;;21.97;66.76
61359;BME280;47228;46.762;23.598;2023-07-31T18:21:48;96866.13;;;21.88;67.30
61359;BME280;47228;46.762;23.598;2023-07-31T18:24:16;96870.47;;;21.81;67.77
61359;BME280;47228;46.762;23.598;2023-07-31T18:26:43;96872.76;;;21.76;67.87
61359;BME280;47228;46.762;23.598;2023-07-31T18:29:11;96871.17;;;21.71;68.22
61359;BME280;47228;46.762;23.598;2023-07-31T18:31:39;96873.20;;;21.68;68.64
61359;BME280;47228;46.762;23.598;2023-07-31T18:34:08;96873.67;;;21.65;68.89
61359;BME280;47228;46.762;23.598;2023-07-31T18:36:36;96877.33;;;21.61;69.09
61359;BME280;47228;46.762;23.598;2023-07-31T18:39:06;96878.67;;;21.56;69.52
61359;BME280;47228;46.762;23.598;2023-07-31T18:41:43;96883.13;;;21.53;69.77
61359;BME280;47228;46.762;23.598;2023-07-31T18:44:11;96892.19;;;21.50;69.86
61359;BME280;47228;46.762;23.598;2023-07-31T18:46:39;96896.48;;;21.48;69.98
61359;BME280;47228;46.762;23.598;2023-07-31T18:49:07;96901.97;;;21.45;70.37
61359;BME280;47228;46.762;23.598;2023-07-31T18:51:35;96906.69;;;21.43;70.69
61359;BME280;47228;46.762;23.598;2023-07-31T18:54:06;96905.24;;;21.41;70.96
61359;BME280;47228;46.762;23.598;2023-07-31T18:56:34;96904.63;;;21.39;70.91
61359;BME280;47228;46.762;23.598;2023-07-31T18:59:02;96906.54;;;21.36;71.13
61359;BME280;47228;46.762;23.598;2023-07-31T19:01:30;96903.50;;;21.33;71.35
61359;BME280;47228;46.762;23.598;2023-07-31T19:03:58;96905.25;;;21.30;71.82
61359;BME280;47228;46.762;23.598;2023-07-31T19:06:27;96906.23;;;21.27;71.82
61359;BME280;47228;46.762;23.598;2023-07-31T19:08:55;96911.13;;;21.23;72.27
61359;BME280;47228;46.762;23.598;2023-07-31T19:11:24;96915.08;;;21.17;72.29
61359;BME280;47228;46.762;23.598;2023-07-31T19:13:59;96915.21;;;21.14;72.60
61359;BME280;47228;46.762;23.598;2023-07-31T19:16:28;96918.59;;;21.10;72.71
61359;BME280;47228;46.762;23.598;2023-07-31T19:18:57;96920.14;;;21.04;72.92
61359;BME280;47228;46.762;23.598;2023-07-31T19:21:26;96921.17;;;20.99;73.06
61359;BME280;47228;46.762;23.598;2023-07-31T19:23:54;96923.42;;;20.92;72.95
61359;BME280;47228;46.762;23.598;2023-07-31T19:26:22;96922.11;;;20.86;73.14
61359;BME280;47228;46.762;23.598;2023-07-31T19:28:50;96923.59;;;20.80;73.17
61359;BME280;47228;46.762;23.598;2023-07-31T19:31:19;96924.48;;;20.75;73.19
61359;BME280;47228;46.762;23.598;2023-07-31T19:33:47;96922.30;;;20.70;73.52
61359;BME280;47228;46.762;23.598;2023-07-31T19:36:14;96923.98;;;20.68;73.88
61359;BME280;47228;46.762;23.598;2023-07-31T19:38:42;96925.20;;;20.65;73.90
61359;BME280;47228;46.762;23.598;2023-07-31T19:41:11;96922.30;;;20.63;74.09
61359;BME280;47228;46.762;23.598;2023-07-31T19:43:39;96920.75;;;20.62;74.24
61359;BME280;47228;46.762;23.598;2023-07-31T19:46:07;96922.80;;;20.61;74.25
61359;BME280;47228;46.762;23.598;2023-07-31T19:48:35;96919.84;;;20.57;74.30
61359;BME280;47228;46.762;23.598;2023-07-31T19:51:03;96918.52;;;20.54;74.55
61359;BME280;47228;46.762;23.598;2023-07-31T19:53:32;96922.05;;;20.51;74.71
61359;BME280;47228;46.762;23.598;2023-07-31T19:56:00;96922.62;;;20.44;75.02
61359;BME280;47228;46.762;23.598;2023-07-31T19:58:28;96922.13;;;20.39;75.24
61359;BME280;47228;46.762;23.598;2023-07-31T20:00:57;96921.59;;;20.36;75.57
61359;BME280;47228;46.762;23.598;2023-07-31T20:03:25;96922.09;;;20.32;75.51
61359;BME280;47228;46.762;23.598;2023-07-31T20:05:53;96922.48;;;20.28;75.59
61359;BME280;47228;46.762;23.598;2023-07-31T20:08:23;96922.79;;;20.23;75.95
61359;BME280;47228;46.762;23.598;2023-07-31T20:10:51;96921.56;;;20.19;75.99
61359;BME280;47228;46.762;23.598;2023-07-31T20:13:21;96922.13;;;20.12;76.27
61359;BME280;47228;46.762;23.598;2023-07-31T20:15:49;96926.32;;;20.02;76.59
61359;BME280;47228;46.762;23.598;2023-07-31T20:18:17;96923.73;;;19.93;76.78
61359;BME280;47228;46.762;23.598;2023-07-31T20:20:45;96918.70;;;19.84;76.96
61359;BME280;47228;46.762;23.598;2023-07-31T20:23:13;96916.03;;;19.76;77.52
61359;BME280;47228;46.762;23.598;2023-07-31T20:25:47;96916.44;;;19.67;77.58
61359;BME280;47228;46.762;23.598;2023-07-31T20:28:15;96921.09;;;19.59;78.02
61359;BME280;47228;46.762;23.598;2023-07-31T20:30:44;96921.63;;;19.53;78.39
61359;BME280;47228;46.762;23.598;2023-07-31T20:33:12;96919.83;;;19.47;78.29
61359;BME280;47228;46.762;23.598;2023-07-31T20:35:41;96922.20;;;19.40;78.62
61359;BME280;47228;46.762;23.598;2023-07-31T20:38:09;96922.20;;;19.31;79.14
61359;BME280;47228;46.762;23.598;2023-07-31T20:40:36;96921.24;;;19.22;79.17
61359;BME280;47228;46.762;23.598;2023-07-31T20:43:04;96922.80;;;19.17;79.59
61359;BME280;47228;46.762;23.598;2023-07-31T20:45:32;96919.96;;;19.13;79.72
61359;BME280;47228;46.762;23.598;2023-07-31T20:48:04;96916.68;;;19.11;80.04
61359;BME280;47228;46.762;23.598;2023-07-31T20:50:34;96913.23;;;19.11;80.13
61359;BME280;47228;46.762;23.598;2023-07-31T20:53:03;96911.56;;;19.13;80.00
61359;BME280;47228;46.762;23.598;2023-07-31T20:55:32;96916.50;;;19.13;80.10
61359;BME280;47228;46.762;23.598;2023-07-31T20:58:00;96914.20;;;19.12;80.13
61359;BME280;47228;46.762;23.598;2023-07-31T21:00:28;96912.80;;;19.11;80.13
61359;BME280;47228;46.762;23.598;2023-07-31T21:02:56;96912.05;;;19.11;80.21
61359;BME280;47228;46.762;23.598;2023-07-31T21:05:24;96910.75;;;19.08;79.78
61359;BME280;47228;46.762;23.598;2023-07-31T21:07:52;96909.29;;;19.05;79.87
61359;BME280;47228;46.762;23.598;2023-07-31T21:10:20;96911.27;;;19.04;80.04
61359;BME280;47228;46.762;23.598;2023-07-31T21:12:48;96911.86;;;19.02;80.12
61359;BME280;47228;46.762;23.598;2023-07-31T21:15:16;96917.98;;;18.98;79.92
61359;BME280;47228;46.762;23.598;2023-07-31T21:17:44;96916.38;;;18.97;80.26
61359;BME280;47228;46.762;23.598;2023-07-31T21:20:12;96915.14;;;18.95;79.86
61359;BME280;47228;46.762;23.598;2023-07-31T21:22:41;96911.91;;;18.92;79.82
61359;BME280;47228;46.762;23.598;2023-07-31T21:25:11;96911.42;;;18.88;79.48
61359;BME280;47228;46.762;23.598;2023-07-31T21:27:39;96914.70;;;18.84;79.80
61359;BME280;47228;46.762;23.598;2023-07-31T21:30:07;96912.06;;;18.81;79.50
61359;BME280;47228;46.762;23.598;2023-07-31T21:32:35;96911.63;;;18.74;79.46
61359;BME280;47228;46.762;23.598;2023-07-31T21:35:04;96908.55;;;18.67;79.63
61359;BME280;47228;46.762;23.598;2023-07-31T21:37:32;96903.91;;;18.61;80.04
61359;BME280;47228;46.762;23.598;2023-07-31T21:40:03;96903.80;;;18.57;80.08
61359;BME280;47228;46.762;23.598;2023-07-31T21:42:31;96909.00;;;18.52;80.39
61359;BME280;47228;46.762;23.598;2023-07-31T21:44:59;96912.28;;;18.48;80.44
61359;BME280;47228;46.762;23.598;2023-07-31T21:47:27;96915.17;;;18.44;80.47
61359;BME280;47228;46.762;23.598;2023-07-31T21:49:55;96914.36;;;18.41;80.50
61359;BME280;47228;46.762;23.598;2023-07-31T21:52:24;96913.49;;;18.37;80.38
61359;BME280;47228;46.762;23.598;2023-07-31T21:54:53;96909.06;;;18.33;80.64
61359;BME280;47228;46.762;23.598;2023-07-31T21:57:21;96905.63;;;18.31;80.67
61359;BME280;47228;46.762;23.598;2023-07-31T21:59:49;96905.73;;;18.29;80.54
61359;BME280;47228;46.762;23.598;2023-07-31T22:02:17;96901.96;;;18.27;80.59
61359;BME280;47228;46.762;23.598;2023-07-31T22:04:45;96901.26;;;18.26;80.92
61359;BME280;47228;46.762;23.598;2023-07-31T22:07:13;96894.80;;;18.25;80.78
61359;BME280;47228;46.762;23.598;2023-07-31T22:09:41;96893.56;;;18.21;80.54
61359;BME280;47228;46.762;23.598;2023-07-31T22:12:09;96891.45;;;18.18;80.49
61359;BME280;47228;46.762;23.598;2023-07-31T22:14:37;96894.30;;;18.17;80.39
61359;BME280;47228;46.762;23.598;2023-07-31T22:17:05;96893.05;;;18.14;80.71
61359;BME280;47228;46.762;23.598;2023-07-31T22:19:33;96892.77;;;18.13;80.56
61359;BME280;47228;46.762;23.598;2023-07-31T22:22:03;96891.00;;;18.13;80.40
61359;BME280;47228;46.762;23.598;2023-07-31T22:24:32;96888.37;;;18.14;80.55
61359;BME280;47228;46.762;23.598;2023-07-31T22:27:00;96888.59;;;18.13;80.41
61359;BME280;47228;46.762;23.598;2023-07-31T22:29:28;96887.34;;;18.13;80.34
61359;BME280;47228;46.762;23.598;2023-07-31T22:31:55;96885.14;;;18.13;80.39
61359;BME280;47228;46.762;23.598;2023-07-31T22:34:23;96883.15;;;18.12;80.05
61359;BME280;47228;46.762;23.598;2023-07-31T22:36:51;96884.88;;;18.12;80.04
61359;BME280;47228;46.762;23.598;2023-07-31T22:39:19;96882.55;;;18.11;79.96
61359;BME280;47228;46.762;23.598;2023-07-31T22:41:47;96880.94;;;18.10;79.67
61359;BME280;47228;46.762;23.598;2023-07-31T22:44:15;96884.06;;;18.11;79.91
61359;BME280;47228;46.762;23.598;2023-07-31T22:46:43;96887.23;;;18.10;79.84
61359;BME280;47228;46.762;23.598;2023-07-31T22:49:11;96885.48;;;18.08;79.75
61359;BME280;47228;46.762;23.598;2023-07-31T22:51:39;96882.73;;;18.07;79.65
61359;BME280;47228;46.762;23.598;2023-07-31T22:54:07;96881.08;;;18.08;79.48
61359;BME280;47228;46.762;23.598;2023-07-31T22:56:35;96880.33;;;18.08;79.44
61359;BME280;47228;46.762;23.598;2023-07-31T22:59:03;96882.14;;;18.07;79.09
61359;BME280;47228;46.762;23.598;2023-07-31T23:01:30;96878.74;;;18.04;79.21
61359;BME280;47228;46.762;23.598;2023-07-31T23:03:59;96876.96;;;18.00;79.23
61359;BME280;47228;46.762;23.598;2023-07-31T23:06:26;96872.38;;;17.97;79.25
61359;BME280;47228;46.762;23.598;2023-07-31T23:08:54;96873.91;;;17.91;79.22
61359;BME280;47228;46.762;23.598;2023-07-31T23:11:22;96870.94;;;17.85;79.42
61359;BME280;47228;46.762;23.598;2023-07-31T23:13:50;96867.74;;;17.80;79.57
61359;BME280;47228;46.762;23.598;2023-07-31T23:16:18;96869.66;;;17.77;79.69
61359;BME280;47228;46.762;23.598;2023-07-31T23:18:46;96867.83;;;17.74;79.75
61359;BME280;47228;46.762;23.598;2023-07-31T23:21:14;96864.87;;;17.72;79.81
61359;BME280;47228;46.762;23.598;2023-07-31T23:23:42;96862.12;;;17.69;79.80
61359;BME280;47228;46.762;23.598;2023-07-31T23:26:11;96857.16;;;17.67;79.86
61359;BME280;47228;46.762;23.598;2023-07-31T23:28:39;96859.20;;;17.65;80.00
61359;BME280;47228;46.762;23.598;2023-07-31T23:31:07;96865.11;;;17.64;79.97
61359;BME280;47228;46.762;23.598;2023-07-31T23:33:35;96864.39;;;17.63;80.06
61359;BME280;47228;46.762;23.598;2023-07-31T23:36:10;96867.48;;;17.60;79.98